• Join FlightAware (Why Join?)
  • Login
  • US Flag GB Flag 
14:01 EDT


 

Airport Tracker/Info


-or-


 

Live Flight TrackerFlight Track Log ✈ DAL268 ✈ 01-Nov-2013 ✈ KSFO - KJFK

Flight Track Log - Related Links

Times and Time Zones

All times are in EDT time to prevent confusion due to time zone crossing. See the DAL268 flight status page for this flight to view local times or setup timezone preferences in your user account.

Time Position Orientation Groundspeed Altitude Reporting Facility
EDT Latitude Longitude Course Direction KTS MPH feet Rate Location/Type
14:56 37.6667 -122.3333 35° Northeast 195 224 2,300  Level Northern Cal TRACON
14:57 37.7000 -122.2667 58° Northeast 250 288 5,000 2,700 Climbing Northern Cal TRACON
14:58 37.7059 -122.2775 38° Northeast  Level FlightAware Approximate
14:58 37.7667 -122.2000 38° Northeast 275 316 7,800  Level Northern Cal TRACON
14:59 37.8109 -122.1725 38° Northeast  Level FlightAware Approximate
15:00 37.9160 -122.0674 38° Northeast  Level FlightAware Approximate
15:00 37.9278 -122.0517 36° Northeast 347 399 11,900  Level Oakland Center
15:01 38.0121 -121.9582 35° Northeast  Level FlightAware Approximate
15:01 38.0122 -121.9697 37° Northeast 382 440 14,000  Level Oakland Center
15:02 38.1006 -121.8858 37° Northeast 395 455 16,200 1,800 Climbing Oakland Center
15:03 38.1919 -121.7969 37° Northeast 411 473 17,700 1,620 Climbing Oakland Center
15:04 38.2869 -121.7058 37° Northeast 427 491 19,600 1,920 Climbing Oakland Center
15:05 38.4022 -121.5928 38° Northeast 436 502 21,700 1,800 Climbing Oakland Center
15:06 38.4889 -121.4769 46° Northeast 454 522 23,400 1,560 Climbing Oakland Center
15:07 38.5656 -121.3464 53° Northeast 460 529 25,000 1,380 Climbing Oakland Center
15:08 38.6433 -121.2094 54° Northeast 471 542 26,300 1,320 Climbing Oakland Center
15:09 38.7233 -121.0706 54° Northeast 485 558 27,800 1,260 Climbing Oakland Center
15:10 38.8044 -120.9311 53° Northeast 487 560 28,900 1,260 Climbing Oakland Center
15:11 38.8847 -120.7908 54° Northeast 488 562 30,400 1,320 Climbing Oakland Center
15:12 38.9650 -120.6536 53° Northeast 483 556 31,700 1,200 Climbing Oakland Center
15:13 39.0614 -120.4839 54° Northeast 487 560 32,900 1,320 Climbing Oakland Center
15:14 39.1422 -120.3467 53° Northeast 484 557 34,500 1,260 Climbing Oakland Center
15:15 39.2189 -120.2092 54° Northeast 476 548 35,500 840 Climbing Oakland Center
15:16 39.2986 -120.0683 54° Northeast 475 547 36,300 720 Climbing Oakland Center
15:17 39.3761 -119.9306 54° Northeast 472 543 37,000 300 Climbing Oakland Center
15:18 39.4553 -119.7917 54° Northeast 477 549 37,000  Level Oakland Center
15:19 39.5342 -119.6522 54° Northeast 477 549 37,000  Level Oakland Center
15:20 39.6125 -119.5111 54° Northeast 479 551 37,000  Level Oakland Center
15:21 39.6906 -119.3697 54° Northeast 479 551 37,000  Level Oakland Center
15:22 39.7697 -119.2264 54° Northeast 484 557 37,000  Level Oakland Center
15:23 39.8489 -119.0844 54° Northeast 482 555 37,000  Level Oakland Center
15:25 39.9275 -118.9408 54° Northeast 483 556 37,000  Level Oakland Center
15:26 40.0228 -118.7692 54° Northeast 484 557 37,000  Level Oakland Center
15:27 40.1000 -118.6236 55° Northeast 485 558 37,000  Level Oakland Center
15:28 40.1572 -118.4628 65° Northeast 489 563 37,000  Level Oakland Center
15:29 40.1947 -118.3244 70° East 491 565 37,000  Level Salt Lake Center
15:30 40.2461 -118.1369 70° East 490 564 37,000  Level Salt Lake Center
15:31 40.2892 -117.9744 71° East 493 567 37,000  Level Salt Lake Center
15:32 40.3408 -117.7858 70° East 492 566 37,000  Level Salt Lake Center
15:33 40.3842 -117.6236 71° East 492 566 37,000  Level Salt Lake Center
15:34 40.4353 -117.4331 71° East 493 567 37,000  Level Salt Lake Center
15:35 40.4786 -117.2694 71° East 494 568 37,000  Level Salt Lake Center
15:36 40.5219 -117.1031 71° East 498 573 37,000  Level Salt Lake Center
15:37 40.5747 -116.9081 70° East 499 574 37,000  Level Salt Lake Center
15:38 40.6194 -116.7408 71° East 499 574 37,000  Level Salt Lake Center
15:39 40.6642 -116.5750 70° East 500 575 37,000  Level Salt Lake Center
15:40 40.7150 -116.3817 71° East 499 574 37,000  Level Salt Lake Center
15:41 40.7594 -116.2153 71° East 500 575 37,000  Level Salt Lake Center
15:42 40.8125 -116.0203 70° East 504 580 37,000  Level Salt Lake Center
15:43 40.8567 -115.8556 70° East 500 575 37,000  Level Salt Lake Center
15:44 40.8986 -115.6878 72° East 501 577 37,000  Level Salt Lake Center
15:45 40.9503 -115.4931 71° East 503 579 37,000  Level Salt Lake Center
15:46 40.9936 -115.3261 71° East 501 577 37,000  Level Salt Lake Center
15:47 41.0428 -115.1300 72° East 503 579 37,000  Level Salt Lake Center
15:48 41.0864 -114.9631 71° East 502 578 37,000  Level Salt Lake Center
15:49 41.1275 -114.7914 72° East 501 577 37,000  Level Salt Lake Center
15:50 41.1725 -114.6167 71° East 502 578 37,000  Level Salt Lake Center
15:51 41.2239 -114.4061 72° East 501 577 37,000  Level Salt Lake Center
15:52 41.2669 -114.2306 72° East 501 577 37,000  Level Salt Lake Center
15:53 41.3097 -114.0556 72° East 500 575 37,000  Level Salt Lake Center
15:54 41.3525 -113.8800 72° East 500 575 37,000  Level Salt Lake Center
15:55 41.3822 -113.6967 78° East 505 581 37,000  Level Salt Lake Center
15:56 41.4056 -113.5108 80° East 509 586 37,000  Level Salt Lake Center
15:57 41.4275 -113.3244 81° East 509 586 37,000  Level Salt Lake Center
15:58 41.4556 -113.1017 80° East 508 585 37,000  Level Salt Lake Center
15:59 41.4775 -112.9156 81° East 508 585 37,000  Level Salt Lake Center
16:00 41.5014 -112.7294 80° East 508 585 37,000  Level Salt Lake Center
16:01 41.5239 -112.5431 81° East 508 585 37,000  Level Salt Lake Center
16:02 41.5447 -112.3553 82° East 510 587 37,000  Level Salt Lake Center
16:04 41.5642 -112.1672 82° East 510 587 37,000  Level Salt Lake Center
16:05 41.5836 -111.9783 82° East 511 588 37,000  Level Salt Lake Center
16:06 41.6022 -111.7894 82° East 510 587 37,000  Level Salt Lake Center
16:07 41.6256 -111.5633 82° East 510 587 37,000  Level Salt Lake Center
16:08 41.6433 -111.3761 83° East 508 585 37,000  Level Salt Lake Center
16:09 41.6611 -111.1878 83° East 509 586 37,000  Level Salt Lake Center
16:10 41.6797 -110.9992 82° East 511 588 37,000  Level Salt Lake Center
16:11 41.6975 -110.8083 83° East 509 586 37,000  Level Salt Lake Center
16:12 41.7136 -110.6278 83° East 510 587 37,000  Level Salt Lake Center
16:13 41.7322 -110.4172 83° East 511 588 37,000  Level Salt Lake Center
16:14 41.7483 -110.2381 83° East 509 586 37,000  Level Salt Lake Center
16:15 41.7667 -110.0275 83° East 509 586 37,000  Level Salt Lake Center
16:16 41.7819 -109.8469 83° East 509 586 37,000  Level Salt Lake Center
16:17 41.7994 -109.6367 84° East 507 583 37,000  Level Salt Lake Center
16:18 41.8142 -109.4575 84° East 504 580 37,000  Level Salt Lake Center
16:19 41.8289 -109.2767 84° East 505 581 37,000  Level Salt Lake Center
16:20 41.8444 -109.0650 84° East 507 583 37,000  Level Salt Lake Center
16:21 41.8583 -108.8828 84° East 509 586 37,000  Level Salt Lake Center
16:22 41.8744 -108.6694 84° East 512 589 37,000  Level Salt Lake Center
16:23 41.8867 -108.4869 85° East 511 588 37,000  Level Salt Lake Center
16:24 41.9006 -108.3072 84° East 509 586 37,000  Level Salt Lake Center
16:25 41.9167 -108.0975 84° East 508 585 37,000  Level Salt Lake Center
16:26 41.9258 -107.9131 86° East 515 593 37,000  Level Salt Lake Center
16:27 41.9394 -107.7008 85° East 512 589 37,000  Level Salt Lake Center
16:28 41.9506 -107.5192 85° East 511 588 37,000  Level Salt Lake Center
16:29 41.9636 -107.3061 85° East 513 590 37,000  Level Salt Lake Center
16:30 41.9756 -107.1247 85° East 511 588 37,000  Level Salt Lake Center
16:31 41.9869 -106.9117 86° East 512 589 37,000  Level Salt Lake Center
16:32 41.9972 -106.7283 86° East 514 592 37,000  Level Salt Lake Center
16:33 42.0092 -106.5167 86° East 514 592 37,000  Level Salt Lake Center
16:34 42.0178 -106.3319 86° East 518 596 37,000  Level Salt Lake Center
16:35 42.0292 -106.1461 85° East 522 601 37,000  Level Salt Lake Center
16:36 42.0408 -105.9294 86° East 521 600 37,000  Level Salt Lake Center
16:38 42.0511 -105.7111 86° East 523 602 37,000  Level Denver Center
16:39 42.0594 -105.4939 87° East 523 602 37,000  Level Denver Center
16:40 42.0692 -105.3108 86° East 518 596 37,000  Level Denver Center
16:41 42.0792 -105.0958 86° East 518 596 37,000  Level Denver Center
16:42 42.0969 -104.9139 82° East 516 594 37,000  Level Denver Center
16:43 42.1144 -104.7008 84° East 518 596 37,000  Level Denver Center
16:44 42.1292 -104.5178 84° East 518 596 37,000  Level Denver Center
16:45 42.1481 -104.3028 83° East 522 601 37,000  Level Denver Center
16:46 42.1619 -104.1192 84° East 521 600 37,000  Level Denver Center
16:47 42.1797 -103.9064 83° East 517 595 37,000  Level Denver Center
16:48 42.1939 -103.7225 84° East 519 597 37,000  Level Denver Center
16:49 42.2108 -103.5097 84° East 516 594 37,000  Level Denver Center
16:50 42.2231 -103.3256 85° East 517 595 37,000  Level Denver Center
16:51 42.2397 -103.1103 84° East 520 598 37,000  Level Denver Center
16:52 42.2525 -102.9283 85° East 514 592 37,000  Level Denver Center
16:53 42.2678 -102.7161 84° East 512 589 37,000  Level Denver Center
16:54 42.2797 -102.5350 85° East 508 585 37,000  Level Denver Center
16:55 42.2947 -102.3233 84° East 510 587 37,000  Level Denver Center
16:56 42.3058 -102.1417 85° East 509 586 37,000  Level Denver Center
16:57 42.3186 -101.9297 85° East 510 587 37,000  Level Denver Center
16:58 42.3300 -101.7378 85° East 513 590 37,000  Level Denver Center
16:59 42.3411 -101.5533 85° East 515 593 37,000  Level Denver Center
17:00 42.3536 -101.3367 85° East 518 596 37,000  Level Denver Center
17:01 42.3639 -101.1508 86° East 518 596 37,000  Level Denver Center
17:02 42.3744 -100.9353 86° East 515 593 37,000  Level Denver Center
17:03 42.3844 -100.7511 86° East 513 590 37,000  Level Denver Center
17:04 42.3933 -100.5628 86° East 519 597 37,000  Level Denver Center
17:05 42.4042 -100.3458 86° East 519 597 37,000  Level Denver Center
17:07 42.4128 -100.1589 86° East 519 597 37,000  Level Denver Center
17:08 42.4222 -99.9417 87° East 518 596 37,000  Level Denver Center
17:09 42.4308 -99.7431 87° East 521 600 37,000  Level Denver Center
17:10 42.4394 -99.5472 87° East 520 598 37,000  Level Denver Center
17:11 42.4464 -99.3508 87° East 521 600 37,000  Level Denver Center
17:12 42.4539 -99.1531 87° East 523 602 37,000  Level Denver Center
17:13 42.4636 -98.9153 87° East 526 605 37,000  Level Minneapolis Center
17:14 42.4689 -98.7158 88° East 529 609 37,000  Level Minneapolis Center
17:15 42.4778 -98.5147 87° East 532 612 37,000  Level Minneapolis Center
17:16 42.4889 -98.3136 86° East 533 613 37,000  Level Minneapolis Center
17:17 42.4978 -98.1111 87° East 536 617 37,000  Level Minneapolis Center
17:18 42.5069 -97.9094 86° East 535 616 37,000  Level Minneapolis Center
17:19 42.5175 -97.6878 86° East 531 611 37,000  Level Minneapolis Center
17:20 42.5261 -97.4856 87° East 535 616 37,000  Level Minneapolis Center
17:21 42.5342 -97.2839 87° East 536 617 37,000  Level Minneapolis Center
17:22 42.5419 -97.0822 87° East 536 617 37,000  Level Minneapolis Center
17:23 42.5486 -96.8811 87° East 535 616 37,000  Level Minneapolis Center
17:24 42.5558 -96.6772 87° East 538 619 37,000  Level Minneapolis Center
17:25 42.5636 -96.4336 87° East 537 618 37,000  Level Minneapolis Center
17:26 42.5697 -96.2442 87° East 538 619 37,000  Level Minneapolis Center
17:27 42.5761 -96.0256 88° East 542 624 37,000  Level Minneapolis Center
17:28 42.5814 -95.8211 88° East 541 623 37,000  Level Minneapolis Center
17:29 42.5875 -95.6194 88° East 537 618 37,000  Level Minneapolis Center
17:30 42.5911 -95.4144 89° East 539 620 37,000  Level Minneapolis Center
17:31 42.5969 -95.1936 88° East 537 618 37,000  Level Minneapolis Center
17:32 42.5997 -95.0119 89° East 534 615 37,000  Level Minneapolis Center
17:33 42.6036 -94.7739 89° East 529 609 37,000  Level Minneapolis Center
17:34 42.6064 -94.5756 89° East 527 606 37,000  Level Minneapolis Center
17:35 42.6086 -94.3656 89° East 530 610 37,000  Level Minneapolis Center
17:37 42.6111 -94.1678 89° East 529 609 37,000  Level Minneapolis Center
17:38 42.6128 -93.9714 89° East 526 605 37,000  Level Minneapolis Center
17:39 42.6136 -93.7742 90° East 528 608 37,000  Level Minneapolis Center
17:40 42.6147 -93.5758 89° East 529 609 37,000  Level Minneapolis Center
17:41 42.6161 -93.3383 89° East 529 609 37,000  Level Minneapolis Center
17:42 42.6156 -93.1411 90° East 528 608 37,000  Level Minneapolis Center
17:42 42.6153 -92.9825 90° East 527 606 37,000  Level Chicago Center
17:43 42.6153 -92.7844 90° East 527 606 37,000  Level Chicago Center
17:44 42.6147 -92.5889 90° East 525 604 37,000  Level Chicago Center
17:46 42.6133 -92.3917 90° East 525 604 37,000  Level Chicago Center
17:47 42.6114 -92.1950 91° East 526 605 37,000  Level Chicago Center
17:48 42.6086 -91.9600 91° East 527 606 37,000  Level Chicago Center
17:49 42.6064 -91.7644 91° East 527 606 37,000  Level Chicago Center
17:50 42.6064 -91.5700 90° East 531 611 37,000  Level Chicago Center
17:51 42.6033 -91.3378 91° East 528 608 37,000  Level Chicago Center
17:52 42.5992 -91.1403 92° East 531 611 37,000  Level Chicago Center
17:53 42.5942 -90.9433 92° East 530 610 37,000  Level Chicago Center
17:54 42.5900 -90.7442 92° East 534 615 37,000  Level Chicago Center
17:55 42.5869 -90.5444 91° East 534 615 37,000  Level Chicago Center
17:56 42.5800 -90.3050 92° East 536 617 37,000  Level Chicago Center
17:57 42.5744 -90.1047 92° East 536 617 37,000  Level Chicago Center
17:58 42.5683 -89.8894 92° East 536 617 37,000  Level Chicago Center
17:59 42.5625 -89.6881 92° East 538 619 37,000  Level Chicago Center
18:00 42.5567 -89.4867 92° East 538 619 37,000  Level Chicago Center
18:01 42.5492 -89.2856 93° East 538 619 37,000  Level Chicago Center
18:02 42.5419 -89.0428 92° East 540 621 37,000  Level Chicago Center
18:03 42.5347 -88.8447 93° East 533 613 37,000  Level Chicago Center
18:04 42.5272 -88.6428 93° East 537 618 37,000  Level Chicago Center
18:05 42.5192 -88.4372 93° East 545 627 37,000  Level Chicago Center
18:06 42.5097 -88.2347 94° East 546 628 37,000  Level Chicago Center
18:07 42.5006 -87.9919 93° East 542 624 37,000  Level Chicago Center
18:08 42.4992 -87.7886 90° East 542 624 37,000  Level Chicago Center
18:09 42.4992 -87.5961 90° East 544 626 37,000  Level Chicago Center
18:10 42.4983 -87.3906 90° East 545 627 37,000  Level Chicago Center
18:11 42.4967 -87.1428 90° East 549 632 37,000  Level Chicago Center
18:12 42.4944 -86.9353 91° East 551 634 37,000  Level Chicago Center
18:13 42.4928 -86.7292 91° East 550 633 37,000  Level Chicago Center
18:15 42.4914 -86.5061 90° East 553 636 37,000  Level Chicago Center
18:16 42.4875 -86.2992 91° East 553 636 37,000  Level Chicago Center
18:17 42.4844 -86.0925 91° East 555 639 37,000  Level Chicago Center
18:18 42.4814 -85.8867 91° East 553 636 37,000  Level Chicago Center
18:19 42.4767 -85.6781 92° East 558 642 37,000  Level Chicago Center
18:20 42.4717 -85.4278 91° East 560 644 37,000  Level Chicago Center
18:21 42.4672 -85.2194 92° East 558 642 37,000  Level Chicago Center
18:22 42.4622 -85.0097 92° East 559 643 37,000  Level Chicago Center
18:23 42.4564 -84.8017 92° East 558 642 37,000  Level Chicago Center
18:24 42.4511 -84.5917 92° East 560 644 37,000  Level Chicago Center
18:25 42.4428 -84.3428 93° East 557 641 37,000  Level Chicago Center
18:26 42.4361 -84.1328 92° East 559 643 37,000  Level Chicago Center
18:27 42.4294 -83.9242 92° East 558 642 37,000  Level Chicago Center
18:28 42.4175 -83.6475 93° East 559 643 37,000  Level Cleveland Center
18:29 42.4100 -83.4447 93° East 559 643 37,000  Level Cleveland Center
18:30 42.4000 -83.2175 93° East 560 644 37,000  Level Cleveland Center
18:31 42.3903 -83.0075 94° East 557 641 37,000  Level Cleveland Center
18:32 42.3811 -82.7989 93° East 556 640 37,000  Level Cleveland Center
18:33 42.3711 -82.5486 93° East 555 639 37,000  Level Cleveland Center
18:34 42.3625 -82.3397 93° East 557 641 37,000  Level Cleveland Center
18:35 42.3542 -82.1325 93° East 555 639 37,000  Level Cleveland Center
18:37 42.3461 -81.9319 93° East 558 642 37,000  Level Cleveland Center
18:38 42.3339 -81.6864 94° East 557 641 37,000  Level Cleveland Center
18:39 42.3244 -81.4761 93° East 555 639 37,000  Level Cleveland Center
18:40 42.3150 -81.2706 93° East 545 627 37,000  Level Cleveland Center
18:41 42.3050 -81.0689 94° East 535 616 37,000  Level Cleveland Center
18:42 42.2947 -80.8678 94° East 531 611 37,000  Level Cleveland Center
18:43 42.2531 -80.6789 107° East 520 598 37,000  Level Cleveland Center
18:44 42.1614 -80.5381 131° Southeast 500 575 37,000  Level Cleveland Center
18:45 42.0667 -80.4003 133° Southeast 497 572 37,000  Level Cleveland Center
18:46 41.9978 -80.2328 119° Southeast 524 603 37,000  Level Cleveland Center
18:47 42.0144 -80.0022 84° East 540 621 37,000  Level Cleveland Center
18:48 42.0553 -79.8008 75° East 540 621 37,000  Level Cleveland Center
18:49 42.0892 -79.6083 77° East 533 613 37,000  Level Cleveland Center
18:50 42.0833 -79.4100 92° East 531 611 37,000  Level Cleveland Center
18:51 42.0575 -79.2186 100° East 524 603 37,000  Level Cleveland Center
18:52 42.0314 -79.0264 100° East 524 603 37,000  Level Cleveland Center
18:53 41.9994 -78.7967 101° East 522 601 37,000  Level Cleveland Center
18:54 41.9722 -78.6000 100° East 532 612 37,000  Level Cleveland Center
18:55 41.9453 -78.4036 100° East 536 617 37,000  Level Cleveland Center
18:57 41.8906 -78.0403 101° East 534 615 37,000  Level New York Center
18:58 41.8558 -77.8219 102° East 539 620 37,000  Level New York Center
18:59 41.8083 -77.6361 109° East 544 626 37,000  Level New York Center
19:00 41.7586 -77.4503 110° East 533 613 37,000  Level New York Center
19:01 41.7083 -77.2672 110° East 533 613 37,000  Level New York Center
19:02 41.6581 -77.0792 110° East 533 613 37,000  Level New York Center
19:03 41.6092 -76.8942 109° East 528 608 37,000  Level New York Center
19:04 41.5581 -76.7119 110° East 522 601 37,000  Level New York Center
19:05 41.5161 -76.5531 109° East 517 595 37,000  Level New York Center
19:06 41.4644 -76.3686 110° East 517 595 37,000 -1,020 Level New York Center
19:07 41.4092 -76.1678 110° East 524 603 35,000 -2,400 Descending New York Center
19:08 41.3569 -75.9839 111° Southeast 526 605 32,200 -2,820 Descending New York Center
19:09 41.3061 -75.8086 111° Southeast 515 593 29,400 -2,520 Descending New York Center
19:10 41.2550 -75.6364 111° Southeast 510 587 27,200 -2,160 Descending New York Center
19:11 41.2011 -75.4753 114° Southeast 497 572 25,100 -2,100 Descending New York Center
19:12 41.1489 -75.3203 114° Southeast 472 543 23,100 -1,080 Descending New York Center
19:13 41.0944 -75.1650 115° Southeast 461 531 23,000 -60 Descending New York Center
19:14 41.0419 -75.0078 114° Southeast 461 531 23,000  Level New York Center
19:15 40.9933 -74.8478 112° Southeast 466 536 23,000 -60 Level New York Center
19:16 40.9722 -74.6681 99° East 478 550 22,900 -660 Descending New York Center
19:17 40.9531 -74.4856 98° East 483 556 21,700 -1,500 Descending New York Center
19:18 40.9356 -74.3144 98° East 489 563 20,000 -1,380 Descending New York Center
19:19 40.9153 -74.1567 100° East 470 541 19,000 -1,080 Descending New York Center
19:20 40.8467 -74.0792 139° Southeast 337 388 17,900 -1,380 Descending New York Center
19:21 40.7725 -74.0456 161° South 313 360 16,300 -1,680 Descending New York Center
19:22 40.6839 -74.0111 164° South 305 351 14,600 -1,620 Descending New York Center
19:23 40.6139 -73.9778 160° South 300 345 13,100 -1,740 Descending New York Center
19:24 40.5392 -73.8925 139° Southeast 305 351 11,200 -1,800 Descending New York Center
19:25 40.4786 -73.8161 136° Southeast 309 356 9,600 -1,620 Descending New York Center
19:26 40.4458 -73.7108 112° Southeast 309 356 8,000 -1,380 Descending New York Center
19:27 40.4317 -73.6147 101° East 295 339 6,900 -1,140 Descending New York Center
19:28 40.5000 -73.5000 52° Northeast 300 345 5,400 -1,140 Descending New York TRACON
19:29 40.5667 -73.4833 11° North 264 304 4,500 -1,200 Descending New York TRACON
19:30 40.6500 -73.4667 North 270 311 3,000 -720 Descending New York TRACON
19:31 40.7167 -73.4833 349° North 267 307 3,100 -180 Climbing New York TRACON
19:32 40.7500 -73.5500 303° West 232 267 2,700 -600 Descending New York TRACON
19:33 40.7833 -73.6167 303° West 225 259 2,000 -360 Descending New York TRACON
19:34 40.7667 -73.6667 246° West 153 176 2,100 -120 Climbing New York TRACON
19:35 40.7167 -73.7000 207° Southwest 152 175 1,800 -480 Descending New York TRACON
19:36 40.7000 -73.7167 217° Southwest 115 132 1,200 -600 Descending New York TRACON
19:37 40.6667 -73.7333 201° Southwest 114 131 600 -600 Descending New York TRACON